< < Back
Terminal Aerodrome Forecast


Current Version              Previous Versions:   1  2  3  4  5  6  7  8  9  

Terminal Aerodrome Forecast

950
FTAK31 PAJN 022327
TAFAGS
TAF
PAGS 022327Z 0300/0324 35012G18KT P6SM SCT120
     FM030300 34006KT P6SM FEW060
     FM030900 VRB03KT P6SM SKC
     FM032000 22006KT P6SM SKC
      AMD LTD TO CLD VIS AND WIND=



Latest METAR

803
SAUS70 KWBC 030400 RRL
MTRAGS
METAR KAGS 030353Z 00000KT 10SM CLR 23/23 A2999 RMK AO2 SLP154
T02330228


USA.gov is the U.S. government's official web portal to all federal, state and local government web resources and services.